sensor_id;sensor_type;location;lat;lon;timestamp;P1;durP1;ratioP1;P2;durP2;ratioP2
12816;SDS011;6473;51.552;6.716;2024-01-15T00:02:03;36.30;;;17.37;;
12816;SDS011;6473;51.552;6.716;2024-01-15T00:04:31;35.60;;;16.93;;
12816;SDS011;6473;51.552;6.716;2024-01-15T00:06:58;35.60;;;16.90;;
12816;SDS011;6473;51.552;6.716;2024-01-15T00:09:27;31.63;;;16.63;;
12816;SDS011;6473;51.552;6.716;2024-01-15T00:11:55;39.73;;;18.07;;
12816;SDS011;6473;51.552;6.716;2024-01-15T00:14:22;37.03;;;16.80;;
12816;SDS011;6473;51.552;6.716;2024-01-15T00:16:49;34.87;;;16.83;;
12816;SDS011;6473;51.552;6.716;2024-01-15T00:19:17;34.63;;;15.73;;
12816;SDS011;6473;51.552;6.716;2024-01-15T00:21:44;34.33;;;15.87;;
12816;SDS011;6473;51.552;6.716;2024-01-15T00:24:11;30.87;;;15.33;;
12816;SDS011;6473;51.552;6.716;2024-01-15T00:26:40;29.23;;;16.37;;
12816;SDS011;6473;51.552;6.716;2024-01-15T00:29:07;32.60;;;15.70;;
12816;SDS011;6473;51.552;6.716;2024-01-15T00:31:34;32.90;;;15.73;;
12816;SDS011;6473;51.552;6.716;2024-01-15T00:34:01;31.13;;;16.07;;
12816;SDS011;6473;51.552;6.716;2024-01-15T00:36:28;29.80;;;14.73;;
12816;SDS011;6473;51.552;6.716;2024-01-15T00:38:55;29.37;;;13.90;;
12816;SDS011;6473;51.552;6.716;2024-01-15T00:41:22;25.67;;;14.20;;
12816;SDS011;6473;51.552;6.716;2024-01-15T00:43:51;26.63;;;12.87;;
12816;SDS011;6473;51.552;6.716;2024-01-15T00:46:18;30.83;;;14.57;;
12816;SDS011;6473;51.552;6.716;2024-01-15T00:48:45;31.20;;;14.43;;
12816;SDS011;6473;51.552;6.716;2024-01-15T00:51:13;25.20;;;13.80;;
12816;SDS011;6473;51.552;6.716;2024-01-15T00:53:40;22.93;;;12.60;;
12816;SDS011;6473;51.552;6.716;2024-01-15T00:56:07;23.93;;;12.87;;
12816;SDS011;6473;51.552;6.716;2024-01-15T00:58:34;26.23;;;13.33;;
12816;SDS011;6473;51.552;6.716;2024-01-15T01:01:03;25.40;;;13.23;;
12816;SDS011;6473;51.552;6.716;2024-01-15T01:03:30;21.60;;;11.80;;
12816;SDS011;6473;51.552;6.716;2024-01-15T01:05:57;26.00;;;12.57;;
12816;SDS011;6473;51.552;6.716;2024-01-15T01:08:24;27.20;;;13.03;;
12816;SDS011;6473;51.552;6.716;2024-01-15T01:10:51;27.10;;;13.67;;
12816;SDS011;6473;51.552;6.716;2024-01-15T01:13:18;27.70;;;14.10;;
12816;SDS011;6473;51.552;6.716;2024-01-15T01:15:46;27.40;;;12.60;;
12816;SDS011;6473;51.552;6.716;2024-01-15T01:18:14;22.77;;;13.40;;
12816;SDS011;6473;51.552;6.716;2024-01-15T01:20:41;25.80;;;13.50;;
12816;SDS011;6473;51.552;6.716;2024-01-15T01:23:08;27.00;;;12.90;;
12816;SDS011;6473;51.552;6.716;2024-01-15T01:25:36;26.73;;;14.10;;
12816;SDS011;6473;51.552;6.716;2024-01-15T01:28:03;26.73;;;12.17;;
12816;SDS011;6473;51.552;6.716;2024-01-15T01:30:30;24.90;;;12.67;;
12816;SDS011;6473;51.552;6.716;2024-01-15T01:32:57;28.50;;;13.07;;
12816;SDS011;6473;51.552;6.716;2024-01-15T01:35:26;24.53;;;13.60;;
12816;SDS011;6473;51.552;6.716;2024-01-15T01:37:53;25.97;;;12.80;;
12816;SDS011;6473;51.552;6.716;2024-01-15T01:40:20;29.60;;;13.83;;
12816;SDS011;6473;51.552;6.716;2024-01-15T01:42:48;23.27;;;12.27;;
12816;SDS011;6473;51.552;6.716;2024-01-15T01:45:15;28.00;;;13.07;;
12816;SDS011;6473;51.552;6.716;2024-01-15T01:47:42;21.03;;;12.03;;
12816;SDS011;6473;51.552;6.716;2024-01-15T01:50:09;23.97;;;12.47;;
12816;SDS011;6473;51.552;6.716;2024-01-15T01:52:38;19.37;;;12.33;;
12816;SDS011;6473;51.552;6.716;2024-01-15T01:55:06;22.07;;;12.50;;
12816;SDS011;6473;51.552;6.716;2024-01-15T01:57:35;25.10;;;11.33;;
12816;SDS011;6473;51.552;6.716;2024-01-15T02:00:03;23.47;;;12.93;;
12816;SDS011;6473;51.552;6.716;2024-01-15T02:02:36;26.50;;;12.07;;
12816;SDS011;6473;51.552;6.716;2024-01-15T02:05:04;23.67;;;11.97;;
12816;SDS011;6473;51.552;6.716;2024-01-15T02:07:31;27.30;;;11.67;;
12816;SDS011;6473;51.552;6.716;2024-01-15T02:10:00;21.53;;;11.70;;
12816;SDS011;6473;51.552;6.716;2024-01-15T02:12:27;24.30;;;12.03;;
12816;SDS011;6473;51.552;6.716;2024-01-15T02:14:54;25.10;;;12.47;;
12816;SDS011;6473;51.552;6.716;2024-01-15T02:17:21;21.43;;;10.50;;
12816;SDS011;6473;51.552;6.716;2024-01-15T02:19:49;22.07;;;12.13;;
12816;SDS011;6473;51.552;6.716;2024-01-15T02:22:16;21.13;;;10.70;;
12816;SDS011;6473;51.552;6.716;2024-01-15T02:24:45;19.70;;;11.70;;
12816;SDS011;6473;51.552;6.716;2024-01-15T02:27:13;25.10;;;10.90;;
12816;SDS011;6473;51.552;6.716;2024-01-15T02:29:40;25.87;;;11.40;;
12816;SDS011;6473;51.552;6.716;2024-01-15T02:32:08;28.43;;;12.00;;
12816;SDS011;6473;51.552;6.716;2024-01-15T02:34:35;21.97;;;11.47;;
12816;SDS011;6473;51.552;6.716;2024-01-15T02:37:02;21.97;;;11.93;;
12816;SDS011;6473;51.552;6.716;2024-01-15T02:39:30;22.93;;;10.83;;
12816;SDS011;6473;51.552;6.716;2024-01-15T02:41:58;21.00;;;11.20;;
12816;SDS011;6473;51.552;6.716;2024-01-15T02:44:25;23.33;;;10.87;;
12816;SDS011;6473;51.552;6.716;2024-01-15T02:46:52;23.90;;;11.80;;
12816;SDS011;6473;51.552;6.716;2024-01-15T02:49:20;20.93;;;11.33;;
12816;SDS011;6473;51.552;6.716;2024-01-15T02:51:47;20.40;;;10.60;;
12816;SDS011;6473;51.552;6.716;2024-01-15T02:54:14;22.87;;;10.60;;
12816;SDS011;6473;51.552;6.716;2024-01-15T02:56:41;22.43;;;10.23;;
12816;SDS011;6473;51.552;6.716;2024-01-15T02:59:10;19.27;;;11.07;;
12816;SDS011;6473;51.552;6.716;2024-01-15T03:01:36;21.70;;;10.83;;
12816;SDS011;6473;51.552;6.716;2024-01-15T03:04:04;20.63;;;9.60;;
12816;SDS011;6473;51.552;6.716;2024-01-15T03:06:31;17.60;;;10.90;;
12816;SDS011;6473;51.552;6.716;2024-01-15T03:08:58;16.40;;;9.47;;
12816;SDS011;6473;51.552;6.716;2024-01-15T03:11:25;16.80;;;10.90;;
12816;SDS011;6473;51.552;6.716;2024-01-15T03:13:52;14.63;;;9.03;;
12816;SDS011;6473;51.552;6.716;2024-01-15T03:16:21;13.47;;;8.30;;
12816;SDS011;6473;51.552;6.716;2024-01-15T03:18:48;13.27;;;7.80;;
12816;SDS011;6473;51.552;6.716;2024-01-15T03:21:15;14.23;;;7.47;;
12816;SDS011;6473;51.552;6.716;2024-01-15T03:23:42;17.33;;;7.50;;
12816;SDS011;6473;51.552;6.716;2024-01-15T03:26:09;10.97;;;6.73;;
12816;SDS011;6473;51.552;6.716;2024-01-15T03:28:37;11.90;;;7.63;;
12816;SDS011;6473;51.552;6.716;2024-01-15T03:31:04;12.10;;;7.07;;
12816;SDS011;6473;51.552;6.716;2024-01-15T03:33:32;15.43;;;6.50;;
12816;SDS011;6473;51.552;6.716;2024-01-15T03:35:59;14.13;;;6.57;;
12816;SDS011;6473;51.552;6.716;2024-01-15T03:38:27;11.70;;;6.53;;
12816;SDS011;6473;51.552;6.716;2024-01-15T03:40:55;12.07;;;7.10;;
12816;SDS011;6473;51.552;6.716;2024-01-15T03:43:22;11.87;;;6.77;;
12816;SDS011;6473;51.552;6.716;2024-01-15T03:45:49;11.77;;;6.47;;
12816;SDS011;6473;51.552;6.716;2024-01-15T03:48:16;9.47;;;6.57;;
12816;SDS011;6473;51.552;6.716;2024-01-15T03:50:45;12.87;;;6.57;;
12816;SDS011;6473;51.552;6.716;2024-01-15T03:53:12;13.43;;;6.53;;
12816;SDS011;6473;51.552;6.716;2024-01-15T03:55:39;9.50;;;6.13;;
12816;SDS011;6473;51.552;6.716;2024-01-15T03:58:06;11.07;;;6.90;;
12816;SDS011;6473;51.552;6.716;2024-01-15T04:00:33;11.20;;;6.47;;
12816;SDS011;6473;51.552;6.716;2024-01-15T04:03:00;9.77;;;6.17;;
12816;SDS011;6473;51.552;6.716;2024-01-15T04:05:28;11.77;;;6.37;;
12816;SDS011;6473;51.552;6.716;2024-01-15T04:07:56;10.33;;;6.70;;
12816;SDS011;6473;51.552;6.716;2024-01-15T04:10:23;13.33;;;6.77;;
12816;SDS011;6473;51.552;6.716;2024-01-15T04:12:50;9.77;;;6.47;;
12816;SDS011;6473;51.552;6.716;2024-01-15T04:15:17;12.13;;;6.77;;
12816;SDS011;6473;51.552;6.716;2024-01-15T04:17:45;12.03;;;7.03;;
12816;SDS011;6473;51.552;6.716;2024-01-15T04:20:12;16.60;;;7.70;;
12816;SDS011;6473;51.552;6.716;2024-01-15T04:22:39;16.17;;;7.13;;
12816;SDS011;6473;51.552;6.716;2024-01-15T04:25:08;11.73;;;6.93;;
12816;SDS011;6473;51.552;6.716;2024-01-15T04:27:35;12.27;;;7.47;;
12816;SDS011;6473;51.552;6.716;2024-01-15T04:30:02;11.97;;;6.57;;
12816;SDS011;6473;51.552;6.716;2024-01-15T04:32:30;11.87;;;7.73;;
12816;SDS011;6473;51.552;6.716;2024-01-15T04:34:57;8.93;;;6.37;;
12816;SDS011;6473;51.552;6.716;2024-01-15T04:37:24;13.77;;;7.57;;
12816;SDS011;6473;51.552;6.716;2024-01-15T04:39:51;10.87;;;6.80;;
12816;SDS011;6473;51.552;6.716;2024-01-15T04:42:21;11.33;;;6.03;;
12816;SDS011;6473;51.552;6.716;2024-01-15T04:44:48;9.30;;;5.93;;
12816;SDS011;6473;51.552;6.716;2024-01-15T04:47:16;14.67;;;6.40;;
12816;SDS011;6473;51.552;6.716;2024-01-15T04:49:43;10.03;;;5.83;;
12816;SDS011;6473;51.552;6.716;2024-01-15T04:52:11;10.20;;;5.30;;
12816;SDS011;6473;51.552;6.716;2024-01-15T04:54:38;11.50;;;6.53;;
12816;SDS011;6473;51.552;6.716;2024-01-15T04:57:05;9.20;;;5.80;;
12816;SDS011;6473;51.552;6.716;2024-01-15T04:59:33;14.73;;;5.80;;
12816;SDS011;6473;51.552;6.716;2024-01-15T05:02:01;12.77;;;5.70;;
12816;SDS011;6473;51.552;6.716;2024-01-15T05:04:28;8.97;;;5.63;;
12816;SDS011;6473;51.552;6.716;2024-01-15T05:06:55;12.07;;;5.30;;
12816;SDS011;6473;51.552;6.716;2024-01-15T05:09:22;11.37;;;5.77;;
12816;SDS011;6473;51.552;6.716;2024-01-15T05:11:50;9.43;;;5.63;;
12816;SDS011;6473;51.552;6.716;2024-01-15T05:14:17;9.77;;;5.30;;
12816;SDS011;6473;51.552;6.716;2024-01-15T05:16:47;10.80;;;5.47;;
12816;SDS011;6473;51.552;6.716;2024-01-15T05:19:14;11.50;;;5.67;;
12816;SDS011;6473;51.552;6.716;2024-01-15T05:21:42;8.17;;;5.47;;
12816;SDS011;6473;51.552;6.716;2024-01-15T05:24:09;10.30;;;5.40;;
12816;SDS011;6473;51.552;6.716;2024-01-15T05:26:36;6.80;;;5.00;;
12816;SDS011;6473;51.552;6.716;2024-01-15T05:29:03;8.63;;;5.50;;
12816;SDS011;6473;51.552;6.716;2024-01-15T05:31:30;14.53;;;6.10;;
12816;SDS011;6473;51.552;6.716;2024-01-15T05:33:59;10.83;;;6.30;;
12816;SDS011;6473;51.552;6.716;2024-01-15T05:36:26;8.77;;;5.63;;
12816;SDS011;6473;51.552;6.716;2024-01-15T05:38:53;8.93;;;5.30;;
12816;SDS011;6473;51.552;6.716;2024-01-15T05:41:20;10.10;;;6.00;;
12816;SDS011;6473;51.552;6.716;2024-01-15T05:43:47;12.43;;;6.23;;
12816;SDS011;6473;51.552;6.716;2024-01-15T05:46:14;10.37;;;5.97;;
12816;SDS011;6473;51.552;6.716;2024-01-15T05:48:41;7.83;;;4.80;;
12816;SDS011;6473;51.552;6.716;2024-01-15T05:51:11;7.77;;;5.57;;
12816;SDS011;6473;51.552;6.716;2024-01-15T05:53:39;10.47;;;6.20;;
12816;SDS011;6473;51.552;6.716;2024-01-15T05:56:08;8.83;;;5.50;;
12816;SDS011;6473;51.552;6.716;2024-01-15T05:58:35;12.50;;;5.83;;
12816;SDS011;6473;51.552;6.716;2024-01-15T06:01:02;9.30;;;5.57;;
12816;SDS011;6473;51.552;6.716;2024-01-15T06:03:30;11.93;;;6.03;;
12816;SDS011;6473;51.552;6.716;2024-01-15T06:05:57;9.70;;;5.50;;
12816;SDS011;6473;51.552;6.716;2024-01-15T06:08:25;7.47;;;5.40;;
12816;SDS011;6473;51.552;6.716;2024-01-15T06:10:52;8.33;;;4.77;;
12816;SDS011;6473;51.552;6.716;2024-01-15T06:13:20;10.50;;;4.97;;
12816;SDS011;6473;51.552;6.716;2024-01-15T06:15:47;9.00;;;4.97;;
12816;SDS011;6473;51.552;6.716;2024-01-15T06:18:14;10.47;;;4.57;;
12816;SDS011;6473;51.552;6.716;2024-01-15T06:20:41;7.07;;;4.63;;
12816;SDS011;6473;51.552;6.716;2024-01-15T06:23:09;9.97;;;4.60;;
12816;SDS011;6473;51.552;6.716;2024-01-15T06:25:37;8.50;;;4.20;;
12816;SDS011;6473;51.552;6.716;2024-01-15T06:28:04;7.23;;;4.43;;
12816;SDS011;6473;51.552;6.716;2024-01-15T06:30:31;9.07;;;4.07;;
12816;SDS011;6473;51.552;6.716;2024-01-15T06:32:59;5.60;;;3.53;;
12816;SDS011;6473;51.552;6.716;2024-01-15T06:35:26;6.03;;;3.07;;
12816;SDS011;6473;51.552;6.716;2024-01-15T06:37:54;7.77;;;3.57;;
12816;SDS011;6473;51.552;6.716;2024-01-15T06:40:21;6.27;;;3.20;;
12816;SDS011;6473;51.552;6.716;2024-01-15T06:42:50;6.57;;;3.00;;
12816;SDS011;6473;51.552;6.716;2024-01-15T06:45:17;6.83;;;2.87;;
12816;SDS011;6473;51.552;6.716;2024-01-15T06:47:44;5.80;;;3.27;;
12816;SDS011;6473;51.552;6.716;2024-01-15T06:50:11;4.67;;;2.70;;
12816;SDS011;6473;51.552;6.716;2024-01-15T06:52:38;6.07;;;2.90;;
12816;SDS011;6473;51.552;6.716;2024-01-15T06:55:06;3.40;;;2.43;;
12816;SDS011;6473;51.552;6.716;2024-01-15T06:57:33;3.60;;;2.30;;
12816;SDS011;6473;51.552;6.716;2024-01-15T07:00:02;3.67;;;2.50;;
12816;SDS011;6473;51.552;6.716;2024-01-15T07:02:32;3.67;;;2.50;;
12816;SDS011;6473;51.552;6.716;2024-01-15T07:05:00;5.27;;;2.33;;
12816;SDS011;6473;51.552;6.716;2024-01-15T07:07:29;2.83;;;2.03;;
12816;SDS011;6473;51.552;6.716;2024-01-15T07:09:57;2.10;;;1.80;;
12816;SDS011;6473;51.552;6.716;2024-01-15T07:12:24;4.53;;;2.13;;
12816;SDS011;6473;51.552;6.716;2024-01-15T07:14:51;5.30;;;2.00;;
12816;SDS011;6473;51.552;6.716;2024-01-15T07:17:20;2.00;;;1.63;;
12816;SDS011;6473;51.552;6.716;2024-01-15T07:19:46;3.17;;;2.10;;
12816;SDS011;6473;51.552;6.716;2024-01-15T07:22:14;2.90;;;2.03;;
12816;SDS011;6473;51.552;6.716;2024-01-15T07:24:42;3.17;;;2.50;;
12816;SDS011;6473;51.552;6.716;2024-01-15T07:27:09;5.23;;;2.40;;
12816;SDS011;6473;51.552;6.716;2024-01-15T07:29:36;4.40;;;2.50;;
12816;SDS011;6473;51.552;6.716;2024-01-15T07:32:04;3.93;;;2.87;;
12816;SDS011;6473;51.552;6.716;2024-01-15T07:34:34;5.73;;;2.50;;
12816;SDS011;6473;51.552;6.716;2024-01-15T07:37:01;3.40;;;2.23;;
12816;SDS011;6473;51.552;6.716;2024-01-15T07:39:28;2.83;;;2.23;;
12816;SDS011;6473;51.552;6.716;2024-01-15T07:41:56;2.80;;;2.37;;
12816;SDS011;6473;51.552;6.716;2024-01-15T07:44:23;4.37;;;2.67;;
12816;SDS011;6473;51.552;6.716;2024-01-15T07:46:51;2.90;;;2.40;;
12816;SDS011;6473;51.552;6.716;2024-01-15T07:49:18;5.17;;;2.53;;
12816;SDS011;6473;51.552;6.716;2024-01-15T07:51:46;3.90;;;3.13;;
12816;SDS011;6473;51.552;6.716;2024-01-15T07:54:14;3.03;;;2.57;;
12816;SDS011;6473;51.552;6.716;2024-01-15T07:56:53;5.53;;;3.00;;
12816;SDS011;6473;51.552;6.716;2024-01-15T07:59:20;5.20;;;3.40;;
12816;SDS011;6473;51.552;6.716;2024-01-15T08:01:47;6.03;;;3.53;;
12816;SDS011;6473;51.552;6.716;2024-01-15T08:04:16;7.80;;;4.60;;
12816;SDS011;6473;51.552;6.716;2024-01-15T08:06:43;8.80;;;4.57;;
12816;SDS011;6473;51.552;6.716;2024-01-15T08:09:12;7.77;;;4.60;;
12816;SDS011;6473;51.552;6.716;2024-01-15T08:11:39;8.33;;;5.20;;
12816;SDS011;6473;51.552;6.716;2024-01-15T08:14:07;7.07;;;5.40;;
12816;SDS011;6473;51.552;6.716;2024-01-15T08:16:34;7.10;;;5.27;;
12816;SDS011;6473;51.552;6.716;2024-01-15T08:19:01;8.50;;;5.20;;
12816;SDS011;6473;51.552;6.716;2024-01-15T08:21:29;6.93;;;5.00;;
12816;SDS011;6473;51.552;6.716;2024-01-15T08:23:57;5.90;;;5.20;;
12816;SDS011;6473;51.552;6.716;2024-01-15T08:26:25;6.73;;;5.07;;
12816;SDS011;6473;51.552;6.716;2024-01-15T08:28:52;7.27;;;4.77;;
12816;SDS011;6473;51.552;6.716;2024-01-15T08:31:20;7.30;;;4.73;;
12816;SDS011;6473;51.552;6.716;2024-01-15T08:33:47;6.17;;;4.20;;
12816;SDS011;6473;51.552;6.716;2024-01-15T08:36:14;5.37;;;4.50;;
12816;SDS011;6473;51.552;6.716;2024-01-15T08:38:41;7.33;;;4.83;;
12816;SDS011;6473;51.552;6.716;2024-01-15T08:41:09;9.87;;;5.40;;
12816;SDS011;6473;51.552;6.716;2024-01-15T08:43:40;5.57;;;4.40;;
12816;SDS011;6473;51.552;6.716;2024-01-15T08:46:07;5.70;;;3.87;;
12816;SDS011;6473;51.552;6.716;2024-01-15T08:48:34;6.07;;;4.20;;
12816;SDS011;6473;51.552;6.716;2024-01-15T08:51:02;4.90;;;3.90;;
12816;SDS011;6473;51.552;6.716;2024-01-15T08:53:29;7.73;;;4.60;;
12816;SDS011;6473;51.552;6.716;2024-01-15T08:55:56;5.30;;;3.80;;
12816;SDS011;6473;51.552;6.716;2024-01-15T08:58:23;2.87;;;2.67;;
12816;SDS011;6473;51.552;6.716;2024-01-15T09:00:52;3.93;;;3.23;;
12816;SDS011;6473;51.552;6.716;2024-01-15T09:03:19;3.20;;;2.90;;
12816;SDS011;6473;51.552;6.716;2024-01-15T09:05:46;3.13;;;2.50;;
12816;SDS011;6473;51.552;6.716;2024-01-15T09:08:15;4.53;;;3.37;;
12816;SDS011;6473;51.552;6.716;2024-01-15T09:10:42;3.80;;;3.00;;
12816;SDS011;6473;51.552;6.716;2024-01-15T09:13:11;3.90;;;3.33;;
12816;SDS011;6473;51.552;6.716;2024-01-15T09:15:38;4.30;;;3.47;;
12816;SDS011;6473;51.552;6.716;2024-01-15T09:18:06;3.63;;;3.20;;
12816;SDS011;6473;51.552;6.716;2024-01-15T09:20:33;5.47;;;3.23;;
12816;SDS011;6473;51.552;6.716;2024-01-15T09:23:00;5.07;;;3.63;;
12816;SDS011;6473;51.552;6.716;2024-01-15T09:25:28;3.90;;;3.47;;
12816;SDS011;6473;51.552;6.716;2024-01-15T09:27:55;5.50;;;4.10;;
12816;SDS011;6473;51.552;6.716;2024-01-15T09:30:22;3.87;;;3.40;;
12816;SDS011;6473;51.552;6.716;2024-01-15T09:32:49;4.73;;;3.83;;
12816;SDS011;6473;51.552;6.716;2024-01-15T09:35:18;6.67;;;4.20;;
12816;SDS011;6473;51.552;6.716;2024-01-15T09:37:45;5.37;;;4.37;;
12816;SDS011;6473;51.552;6.716;2024-01-15T09:40:13;4.83;;;3.80;;
12816;SDS011;6473;51.552;6.716;2024-01-15T09:42:41;4.97;;;3.70;;
12816;SDS011;6473;51.552;6.716;2024-01-15T09:45:09;6.40;;;3.83;;
12816;SDS011;6473;51.552;6.716;2024-01-15T09:47:36;5.83;;;3.67;;
12816;SDS011;6473;51.552;6.716;2024-01-15T09:50:04;4.27;;;3.77;;
12816;SDS011;6473;51.552;6.716;2024-01-15T09:52:33;6.87;;;4.13;;
12816;SDS011;6473;51.552;6.716;2024-01-15T09:55:01;5.03;;;3.57;;
12816;SDS011;6473;51.552;6.716;2024-01-15T09:57:30;5.97;;;3.50;;
12816;SDS011;6473;51.552;6.716;2024-01-15T09:59:57;5.03;;;3.50;;
12816;SDS011;6473;51.552;6.716;2024-01-15T10:02:29;4.07;;;3.43;;
12816;SDS011;6473;51.552;6.716;2024-01-15T10:04:57;4.80;;;3.67;;
12816;SDS011;6473;51.552;6.716;2024-01-15T10:07:25;5.37;;;3.67;;
12816;SDS011;6473;51.552;6.716;2024-01-15T10:09:54;4.37;;;3.57;;
12816;SDS011;6473;51.552;6.716;2024-01-15T10:12:21;5.07;;;3.63;;
12816;SDS011;6473;51.552;6.716;2024-01-15T10:14:50;5.70;;;3.53;;
12816;SDS011;6473;51.552;6.716;2024-01-15T10:17:17;5.87;;;3.30;;
12816;SDS011;6473;51.552;6.716;2024-01-15T10:19:45;5.40;;;3.60;;
12816;SDS011;6473;51.552;6.716;2024-01-15T10:22:13;7.23;;;3.60;;
12816;SDS011;6473;51.552;6.716;2024-01-15T10:24:41;5.70;;;3.17;;
12816;SDS011;6473;51.552;6.716;2024-01-15T10:27:10;4.67;;;3.00;;
12816;SDS011;6473;51.552;6.716;2024-01-15T10:29:37;3.30;;;2.80;;
12816;SDS011;6473;51.552;6.716;2024-01-15T10:32:06;5.40;;;3.13;;
12816;SDS011;6473;51.552;6.716;2024-01-15T10:34:34;5.27;;;3.20;;
12816;SDS011;6473;51.552;6.716;2024-01-15T10:37:05;5.60;;;3.13;;
12816;SDS011;6473;51.552;6.716;2024-01-15T10:39:34;3.30;;;2.80;;
12816;SDS011;6473;51.552;6.716;2024-01-15T10:42:01;4.20;;;2.50;;
12816;SDS011;6473;51.552;6.716;2024-01-15T10:44:30;3.00;;;2.33;;
12816;SDS011;6473;51.552;6.716;2024-01-15T10:46:57;3.43;;;2.10;;
12816;SDS011;6473;51.552;6.716;2024-01-15T10:49:24;1.67;;;1.57;;
12816;SDS011;6473;51.552;6.716;2024-01-15T10:51:53;3.47;;;2.20;;
12816;SDS011;6473;51.552;6.716;2024-01-15T10:54:22;3.40;;;2.00;;
12816;SDS011;6473;51.552;6.716;2024-01-15T10:56:50;3.63;;;2.00;;
12816;SDS011;6473;51.552;6.716;2024-01-15T10:59:18;1.80;;;1.70;;
12816;SDS011;6473;51.552;6.716;2024-01-15T11:01:49;4.43;;;2.30;;
12816;SDS011;6473;51.552;6.716;2024-01-15T11:04:18;4.00;;;2.20;;
12816;SDS011;6473;51.552;6.716;2024-01-15T11:06:47;4.23;;;2.30;;
12816;SDS011;6473;51.552;6.716;2024-01-15T11:09:16;3.93;;;2.10;;
12816;SDS011;6473;51.552;6.716;2024-01-15T11:11:44;2.77;;;2.23;;
12816;SDS011;6473;51.552;6.716;2024-01-15T11:17:01;2.97;;;2.77;;
12816;SDS011;6473;51.552;6.716;2024-01-15T11:19:35;4.13;;;3.73;;
12816;SDS011;6473;51.552;6.716;2024-01-15T11:22:03;4.23;;;3.77;;
12816;SDS011;6473;51.552;6.716;2024-01-15T11:24:37;4.13;;;3.73;;
12816;SDS011;6473;51.552;6.716;2024-01-15T11:27:05;3.77;;;3.07;;
12816;SDS011;6473;51.552;6.716;2024-01-15T11:29:33;5.77;;;4.00;;
12816;SDS011;6473;51.552;6.716;2024-01-15T11:32:03;4.53;;;4.10;;
12816;SDS011;6473;51.552;6.716;2024-01-15T11:37:16;4.10;;;3.70;;
12816;SDS011;6473;51.552;6.716;2024-01-15T11:39:43;6.00;;;4.20;;
12816;SDS011;6473;51.552;6.716;2024-01-15T11:42:12;4.97;;;3.70;;
12816;SDS011;6473;51.552;6.716;2024-01-15T11:44:39;4.00;;;3.60;;
12816;SDS011;6473;51.552;6.716;2024-01-15T11:47:08;6.27;;;3.60;;
12816;SDS011;6473;51.552;6.716;2024-01-15T11:49:53;4.53;;;3.50;;
12816;SDS011;6473;51.552;6.716;2024-01-15T11:52:26;5.97;;;2.90;;
12816;SDS011;6473;51.552;6.716;2024-01-15T11:54:55;3.50;;;3.00;;
12816;SDS011;6473;51.552;6.716;2024-01-15T11:57:30;6.47;;;3.20;;
12816;SDS011;6473;51.552;6.716;2024-01-15T12:00:04;3.93;;;3.07;;
12816;SDS011;6473;51.552;6.716;2024-01-15T12:02:39;5.13;;;2.80;;
12816;SDS011;6473;51.552;6.716;2024-01-15T12:05:07;3.97;;;2.97;;
12816;SDS011;6473;51.552;6.716;2024-01-15T12:07:35;3.60;;;2.47;;
12816;SDS011;6473;51.552;6.716;2024-01-15T12:10:02;3.20;;;2.57;;
12816;SDS011;6473;51.552;6.716;2024-01-15T12:12:33;5.10;;;2.83;;
12816;SDS011;6473;51.552;6.716;2024-01-15T12:15:18;3.70;;;2.53;;
12816;SDS011;6473;51.552;6.716;2024-01-15T12:17:46;3.77;;;2.40;;
12816;SDS011;6473;51.552;6.716;2024-01-15T12:20:15;2.70;;;1.93;;
12816;SDS011;6473;51.552;6.716;2024-01-15T12:22:42;2.80;;;1.83;;
12816;SDS011;6473;51.552;6.716;2024-01-15T12:25:09;4.17;;;1.60;;
12816;SDS011;6473;51.552;6.716;2024-01-15T12:27:36;4.03;;;1.83;;
12816;SDS011;6473;51.552;6.716;2024-01-15T12:30:04;2.57;;;1.70;;
12816;SDS011;6473;51.552;6.716;2024-01-15T12:32:32;2.53;;;1.63;;
12816;SDS011;6473;51.552;6.716;2024-01-15T12:35:01;1.60;;;1.50;;
12816;SDS011;6473;51.552;6.716;2024-01-15T12:37:30;4.43;;;1.60;;
12816;SDS011;6473;51.552;6.716;2024-01-15T12:39:58;3.63;;;1.63;;
12816;SDS011;6473;51.552;6.716;2024-01-15T12:42:25;1.80;;;1.50;;
12816;SDS011;6473;51.552;6.716;2024-01-15T12:44:53;3.97;;;1.83;;
12816;SDS011;6473;51.552;6.716;2024-01-15T12:47:22;1.33;;;1.23;;
12816;SDS011;6473;51.552;6.716;2024-01-15T12:49:51;1.57;;;1.40;;
12816;SDS011;6473;51.552;6.716;2024-01-15T12:52:21;2.40;;;1.57;;
12816;SDS011;6473;51.552;6.716;2024-01-15T12:54:48;2.30;;;1.47;;
12816;SDS011;6473;51.552;6.716;2024-01-15T12:57:15;5.13;;;1.63;;
12816;SDS011;6473;51.552;6.716;2024-01-15T12:59:43;3.43;;;1.47;;
12816;SDS011;6473;51.552;6.716;2024-01-15T13:02:10;2.20;;;1.50;;
12816;SDS011;6473;51.552;6.716;2024-01-15T13:04:37;5.47;;;1.70;;
12816;SDS011;6473;51.552;6.716;2024-01-15T13:07:05;4.03;;;1.70;;
12816;SDS011;6473;51.552;6.716;2024-01-15T13:09:34;1.97;;;1.60;;
12816;SDS011;6473;51.552;6.716;2024-01-15T13:12:01;3.40;;;1.77;;
12816;SDS011;6473;51.552;6.716;2024-01-15T13:14:28;1.53;;;1.43;;
12816;SDS011;6473;51.552;6.716;2024-01-15T13:16:56;4.33;;;1.73;;
12816;SDS011;6473;51.552;6.716;2024-01-15T13:19:23;3.07;;;1.77;;
12816;SDS011;6473;51.552;6.716;2024-01-15T13:21:51;4.57;;;1.97;;
12816;SDS011;6473;51.552;6.716;2024-01-15T13:24:18;4.40;;;2.10;;
12816;SDS011;6473;51.552;6.716;2024-01-15T13:26:47;1.90;;;1.80;;
12816;SDS011;6473;51.552;6.716;2024-01-15T13:29:14;3.77;;;2.17;;
12816;SDS011;6473;51.552;6.716;2024-01-15T13:31:41;2.97;;;1.80;;
12816;SDS011;6473;51.552;6.716;2024-01-15T13:34:11;2.77;;;1.90;;
12816;SDS011;6473;51.552;6.716;2024-01-15T13:36:39;2.20;;;1.87;;
12816;SDS011;6473;51.552;6.716;2024-01-15T13:39:06;5.00;;;2.10;;
12816;SDS011;6473;51.552;6.716;2024-01-15T13:41:34;2.63;;;2.20;;
12816;SDS011;6473;51.552;6.716;2024-01-15T13:44:03;1.80;;;1.70;;
12816;SDS011;6473;51.552;6.716;2024-01-15T13:46:30;2.90;;;2.03;;
12816;SDS011;6473;51.552;6.716;2024-01-15T13:48:59;1.83;;;1.70;;
12816;SDS011;6473;51.552;6.716;2024-01-15T13:51:27;2.73;;;1.87;;
12816;SDS011;6473;51.552;6.716;2024-01-15T13:53:55;3.03;;;1.90;;
12816;SDS011;6473;51.552;6.716;2024-01-15T13:56:22;1.60;;;1.50;;
12816;SDS011;6473;51.552;6.716;2024-01-15T13:58:49;2.87;;;1.73;;
12816;SDS011;6473;51.552;6.716;2024-01-15T14:01:18;1.40;;;1.30;;
12816;SDS011;6473;51.552;6.716;2024-01-15T14:03:46;1.63;;;1.50;;
12816;SDS011;6473;51.552;6.716;2024-01-15T14:06:13;2.83;;;2.20;;
12816;SDS011;6473;51.552;6.716;2024-01-15T14:08:40;5.33;;;1.60;;
12816;SDS011;6473;51.552;6.716;2024-01-15T14:11:08;2.10;;;1.97;;
12816;SDS011;6473;51.552;6.716;2024-01-15T14:13:35;4.87;;;1.70;;
12816;SDS011;6473;51.552;6.716;2024-01-15T14:16:02;2.23;;;1.97;;
12816;SDS011;6473;51.552;6.716;2024-01-15T14:18:31;2.43;;;1.70;;
12816;SDS011;6473;51.552;6.716;2024-01-15T14:20:59;4.63;;;1.60;;
12816;SDS011;6473;51.552;6.716;2024-01-15T14:23:26;3.10;;;1.70;;
12816;SDS011;6473;51.552;6.716;2024-01-15T14:25:53;1.57;;;1.47;;
12816;SDS011;6473;51.552;6.716;2024-01-15T14:28:21;4.67;;;1.50;;
12816;SDS011;6473;51.552;6.716;2024-01-15T14:30:48;1.47;;;1.37;;
12816;SDS011;6473;51.552;6.716;2024-01-15T14:33:16;1.33;;;1.03;;
12816;SDS011;6473;51.552;6.716;2024-01-15T14:35:45;2.03;;;1.60;;
12816;SDS011;6473;51.552;6.716;2024-01-15T14:38:12;3.53;;;1.50;;
12816;SDS011;6473;51.552;6.716;2024-01-15T14:40:39;2.23;;;1.63;;
12816;SDS011;6473;51.552;6.716;2024-01-15T14:43:07;2.40;;;1.30;;
12816;SDS011;6473;51.552;6.716;2024-01-15T14:45:34;5.00;;;1.60;;
12816;SDS011;6473;51.552;6.716;2024-01-15T14:48:01;2.63;;;1.30;;
12816;SDS011;6473;51.552;6.716;2024-01-15T14:50:28;1.80;;;1.13;;
12816;SDS011;6473;51.552;6.716;2024-01-15T14:52:57;2.70;;;0.97;;
12816;SDS011;6473;51.552;6.716;2024-01-15T14:55:24;4.23;;;1.30;;
12816;SDS011;6473;51.552;6.716;2024-01-15T14:57:51;1.50;;;1.40;;
12816;SDS011;6473;51.552;6.716;2024-01-15T15:00:19;2.80;;;1.10;;
12816;SDS011;6473;51.552;6.716;2024-01-15T15:02:47;1.83;;;1.00;;